Time;durP1;ratioP1;P1;durP2;ratioP2;P2;SDS_P1;SDS_P2;PMS_P1;PMS_P2;Temp;Humidity;BMP_temperature;BMP_pressure;BME280_temperature;BME280_humidity;BME280_pressure;Samples;Min_cycle;Max_cycle;Signal;HPM_P1;HPM_P2
2022/07/02 00:02:25;;;;;;;4.70;1.30;;;15.40;99.90;;;;;;5083095;28;20048;-49
2022/07/02 00:04:58;;;;;;;2.60;1.35;;;15.40;99.90;;;;;;5083584;28;20050;-47
2022/07/02 00:07:25;;;;;;;1.70;0.70;;;15.30;99.90;;;;;;5081991;28;20036;-48
2022/07/02 00:09:54;;;;;;;5.55;1.00;;;15.30;99.90;;;;;;5080625;28;20523;-47
2022/07/02 00:12:19;;;;;;;5.15;1.23;;;15.30;99.90;;;;;;5082075;28;20036;-46
2022/07/02 00:14:49;;;;;;;5.40;1.23;;;15.30;99.90;;;;;;5083011;28;20037;-46
2022/07/02 00:17:14;;;;;;;2.90;2.10;;;15.30;99.90;;;;;;5081869;28;20090;-47
2022/07/02 00:19:40;;;;;;;3.17;1.27;;;15.30;99.90;;;;;;5083422;28;20028;-52
2022/07/02 00:22:06;;;;;;;3.25;1.15;;;15.30;99.90;;;;;;5082028;28;20032;-47
2022/07/02 00:24:32;;;;;;;2.72;1.58;;;15.20;99.90;;;;;;5082720;28;20039;-46
2022/07/02 00:26:59;;;;;;;5.75;1.70;;;15.20;99.90;;;;;;5082001;28;20059;-48
2022/07/02 00:29:42;;;;;;;1.52;1.25;;;15.20;99.90;;;;;;5082462;28;20497;-48
2022/07/02 00:32:08;;;;;;;4.10;1.30;;;15.20;99.90;;;;;;5079714;28;20044;-46
2022/07/02 00:34:37;;;;;;;5.60;1.52;;;15.10;99.90;;;;;;5081100;28;20043;-46
2022/07/02 00:37:03;;;;;;;4.05;1.70;;;15.10;99.90;;;;;;5078580;28;20452;-48
2022/07/02 00:39:28;;;;;;;2.47;1.63;;;15.10;99.90;;;;;;5084191;28;20028;-47
2022/07/02 00:41:55;;;;;;;7.05;2.10;;;15.10;99.90;;;;;;5080392;28;20405;-47
2022/07/02 00:44:22;;;;;;;3.17;2.30;;;15.10;99.90;;;;;;5081500;28;20044;-50
2022/07/02 00:46:49;;;;;;;2.90;1.40;;;15.10;99.90;;;;;;5080643;28;20032;-49
2022/07/02 00:49:16;;;;;;;2.20;1.45;;;15.10;99.90;;;;;;5083181;28;20040;-47
2022/07/02 00:51:42;;;;;;;1.83;1.40;;;15.10;99.90;;;;;;5081636;28;20826;-47
2022/07/02 00:54:07;;;;;;;4.32;1.65;;;15.10;99.90;;;;;;5079238;28;20119;-49
2022/07/02 00:56:33;;;;;;;1.77;1.67;;;15.00;99.90;;;;;;5081326;28;20032;-46
2022/07/02 00:59:01;;;;;;;3.60;2.00;;;15.00;99.90;;;;;;5081775;28;20032;-47
2022/07/02 01:01:26;;;;;;;3.53;1.60;;;15.00;99.90;;;;;;5077562;28;20039;-49
2022/07/02 01:03:54;;;;;;;4.97;2.45;;;15.00;99.90;;;;;;5074998;28;20508;-50
2022/07/02 01:06:22;;;;;;;4.70;1.55;;;15.00;99.90;;;;;;5081297;28;20505;-46
2022/07/02 01:11:34;;;;;;;6.00;1.50;;;15.00;99.90;;;;;;5082437;28;20040;-50
2022/07/02 01:14:03;;;;;;;3.08;1.73;;;15.00;99.90;;;;;;5078519;28;20040;-49
2022/07/02 01:16:29;;;;;;;4.32;1.70;;;15.00;99.90;;;;;;5078717;28;20036;-47
2022/07/02 01:18:54;;;;;;;4.40;1.92;;;15.00;99.90;;;;;;5078764;28;20401;-46
2022/07/02 01:21:20;;;;;;;2.20;1.50;;;14.90;99.90;;;;;;5081972;28;20111;-47
2022/07/02 01:23:45;;;;;;;3.78;1.67;;;14.90;99.90;;;;;;5081495;28;20041;-48
2022/07/02 01:26:11;;;;;;;3.78;1.73;;;14.90;99.90;;;;;;5078351;28;20056;-46
2022/07/02 01:28:37;;;;;;;4.43;2.53;;;14.90;99.90;;;;;;5082744;28;20500;-46
2022/07/02 01:31:02;;;;;;;5.40;2.00;;;14.90;99.90;;;;;;5080655;28;20034;-52
2022/07/02 01:33:28;;;;;;;3.10;2.25;;;14.90;99.90;;;;;;5080422;28;20036;-47
2022/07/02 01:35:54;;;;;;;2.50;2.28;;;14.80;99.90;;;;;;5079604;28;20068;-50
2022/07/02 01:38:19;;;;;;;11.52;3.58;;;14.80;99.90;;;;;;5081684;28;20572;-47
2022/07/02 01:40:45;;;;;;;3.92;1.85;;;14.80;99.90;;;;;;5080394;28;20463;-49
2022/07/02 01:43:10;;;;;;;3.92;2.40;;;14.80;99.90;;;;;;5078989;28;20055;-49
2022/07/02 01:45:36;;;;;;;5.78;2.63;;;14.80;99.90;;;;;;5079807;28;20036;-47
2022/07/02 01:48:02;;;;;;;7.55;2.70;;;14.80;99.90;;;;;;5077528;28;20267;-47
2022/07/02 01:50:27;;;;;;;5.60;2.88;;;14.70;99.90;;;;;;5080983;28;20070;-47
2022/07/02 01:52:56;;;;;;;6.30;2.63;;;14.70;99.90;;;;;;5081452;28;20385;-50
2022/07/02 01:55:23;;;;;;;5.78;3.13;;;14.70;99.90;;;;;;5080815;28;20097;-48
2022/07/02 01:57:48;;;;;;;4.82;2.80;;;14.70;99.90;;;;;;5079142;28;20115;-46
2022/07/02 02:00:14;;;;;;;3.40;3.00;;;14.60;99.90;;;;;;5081053;28;20116;-47
2022/07/02 02:02:40;;;;;;;3.92;3.25;;;14.60;99.90;;;;;;5078272;28;20501;-48
2022/07/02 02:05:06;;;;;;;6.30;3.00;;;14.60;99.90;;;;;;5079643;28;20039;-50
2022/07/02 02:07:32;;;;;;;2.80;2.58;;;14.50;99.90;;;;;;5079226;28;20042;-50
2022/07/02 02:09:57;;;;;;;5.85;2.97;;;14.50;99.90;;;;;;5077227;28;20524;-51
2022/07/02 02:12:23;;;;;;;5.63;3.50;;;14.50;99.90;;;;;;5077724;28;20120;-47
2022/07/02 02:14:48;;;;;;;3.58;3.00;;;14.50;99.90;;;;;;5076398;28;20040;-47
2022/07/02 02:17:14;;;;;;;4.10;3.77;;;14.40;99.90;;;;;;5080244;28;20055;-48
2022/07/02 02:19:40;;;;;;;3.63;3.28;;;14.40;99.90;;;;;;5080502;28;20610;-52
2022/07/02 02:22:05;;;;;;;6.20;3.63;;;14.40;99.90;;;;;;5076991;28;20101;-46
2022/07/02 02:24:31;;;;;;;5.13;3.28;;;14.40;99.90;;;;;;5077585;28;20130;-47
2022/07/02 02:26:57;;;;;;;10.32;3.50;;;14.40;99.90;;;;;;5078581;28;20064;-47
2022/07/02 02:29:23;;;;;;;4.80;3.70;;;14.40;99.90;;;;;;5080135;28;20047;-46
2022/07/02 02:31:48;;;;;;;5.80;3.50;;;14.30;99.90;;;;;;5080815;28;20394;-49
2022/07/02 02:34:14;;;;;;;4.15;3.60;;;14.30;99.90;;;;;;5081317;28;20032;-47
2022/07/02 02:36:39;;;;;;;7.00;3.25;;;14.30;99.90;;;;;;5079439;28;20474;-46
2022/07/02 02:39:05;;;;;;;8.32;4.35;;;14.30;99.90;;;;;;5079149;28;20811;-47
2022/07/02 02:41:31;;;;;;;3.70;3.38;;;14.30;99.90;;;;;;5078054;28;20036;-50
2022/07/02 02:43:56;;;;;;;4.25;3.30;;;14.20;99.90;;;;;;5078011;28;20489;-46
2022/07/02 02:46:22;;;;;;;5.20;3.60;;;14.20;99.90;;;;;;5080474;28;20066;-46
2022/07/02 02:48:47;;;;;;;7.23;3.63;;;14.10;99.90;;;;;;5080012;28;20073;-49
2022/07/02 02:51:15;;;;;;;9.80;4.60;;;14.10;99.90;;;;;;5080489;28;20407;-47
2022/07/02 02:53:42;;;;;;;9.00;4.45;;;14.10;99.90;;;;;;5078747;28;20524;-46
2022/07/02 02:56:08;;;;;;;7.30;3.78;;;14.00;99.90;;;;;;5078294;28;20041;-49
2022/07/02 02:58:34;;;;;;;;;;;14.00;99.90;;;;;;5078003;28;20067;-46
2022/07/02 03:00:59;;;;;;;6.30;4.30;;;13.90;99.90;;;;;;5077322;28;19966;-49
2022/07/02 03:03:25;;;;;;;5.38;4.38;;;13.90;99.90;;;;;;5075989;28;20408;-49
2022/07/02 03:05:51;;;;;;;4.22;3.83;;;13.90;99.90;;;;;;5078953;28;20497;-47
2022/07/02 03:08:16;;;;;;;7.60;4.35;;;13.90;99.90;;;;;;5079297;28;20039;-48
2022/07/02 03:10:42;;;;;;;6.82;3.85;;;13.90;99.90;;;;;;5078170;28;20040;-47
2022/07/02 03:13:07;;;;;;;7.00;4.47;;;13.80;99.90;;;;;;5077386;28;20037;-49
2022/07/02 03:15:33;;;;;;;5.07;3.97;;;13.90;99.90;;;;;;5079516;28;20094;-47
2022/07/02 03:17:58;;;;;;;4.70;4.20;;;13.90;99.90;;;;;;5076204;28;20036;-49
2022/07/02 03:20:24;;;;;;;7.78;3.90;;;13.80;99.90;;;;;;5078494;28;20809;-50
2022/07/02 03:22:50;;;;;;;4.30;3.90;;;13.80;99.90;;;;;;5076293;28;20032;-47
2022/07/02 03:25:15;;;;;;;9.50;4.63;;;13.80;99.90;;;;;;5076877;28;20521;-49
2022/07/02 03:27:41;;;;;;;4.93;3.83;;;13.80;99.90;;;;;;5076725;28;20298;-48
2022/07/02 03:30:07;;;;;;;14.13;4.82;;;13.80;99.90;;;;;;5079268;28;20289;-46
2022/07/02 03:32:33;;;;;;;6.25;3.80;;;13.90;99.90;;;;;;5078558;28;20046;-52
2022/07/02 03:34:58;;;;;;;6.32;4.05;;;13.90;99.90;;;;;;5078080;28;20032;-46
2022/07/02 03:37:28;;;;;;;6.25;4.10;;;13.90;99.90;;;;;;5079222;28;20032;-51
2022/07/02 03:39:54;;;;;;;7.32;4.38;;;13.90;99.90;;;;;;5079951;28;20063;-53
2022/07/02 03:42:19;;;;;;;5.75;4.07;;;13.80;99.90;;;;;;5077826;28;20078;-48
2022/07/02 03:44:45;;;;;;;4.82;3.88;;;13.80;99.90;;;;;;5077129;28;20043;-46
2022/07/02 03:47:11;;;;;;;4.30;3.83;;;13.80;99.90;;;;;;5077249;28;20046;-48
2022/07/02 03:49:37;;;;;;;9.13;4.28;;;13.80;99.90;;;;;;5080326;28;20162;-50
2022/07/02 03:52:03;;;;;;;6.18;4.78;;;13.80;99.90;;;;;;5077547;28;20086;-47
2022/07/02 03:54:29;;;;;;;7.93;4.55;;;13.80;99.90;;;;;;5077872;28;20040;-50
2022/07/02 03:56:54;;;;;;;4.97;4.35;;;13.80;99.90;;;;;;5079559;28;20032;-50
2022/07/02 03:59:20;;;;;;;6.70;4.38;;;13.80;99.90;;;;;;5078455;28;20040;-46
2022/07/02 04:01:45;;;;;;;11.05;4.35;;;13.70;99.90;;;;;;5078811;28;20040;-48
2022/07/02 04:04:11;;;;;;;7.00;4.50;;;13.80;99.90;;;;;;5078884;28;20068;-49
2022/07/02 04:06:37;;;;;;;4.95;4.22;;;13.80;99.90;;;;;;5076683;28;20063;-51
2022/07/02 04:09:02;;;;;;;8.60;3.80;;;13.80;99.90;;;;;;5079663;28;20043;-48
2022/07/02 04:11:28;;;;;;;7.40;4.38;;;13.80;99.90;;;;;;5078721;28;20413;-47
2022/07/02 04:13:54;;;;;;;5.97;4.72;;;13.70;99.90;;;;;;5075940;28;20035;-46
2022/07/02 04:16:19;;;;;;;10.57;4.78;;;13.80;99.90;;;;;;5079646;28;20552;-52
2022/07/02 04:18:45;;;;;;;9.60;4.72;;;13.80;99.90;;;;;;5079316;28;20054;-47
2022/07/02 04:21:10;;;;;;;5.63;4.47;;;13.80;99.90;;;;;;5078233;28;20485;-46
2022/07/02 04:23:36;;;;;;;9.07;4.97;;;13.70;99.90;;;;;;5074246;28;20127;-47
2022/07/02 04:26:01;;;;;;;6.45;3.85;;;13.80;99.90;;;;;;5076892;28;20718;-50
2022/07/02 04:28:27;;;;;;;6.25;4.38;;;13.80;99.90;;;;;;5077247;28;20039;-46
2022/07/02 04:30:53;;;;;;;5.40;4.90;;;13.80;99.90;;;;;;5077502;28;20504;-46
2022/07/02 04:33:18;;;;;;;7.40;4.77;;;13.80;99.90;;;;;;5076943;28;20066;-47
2022/07/02 04:35:44;;;;;;;11.18;4.63;;;13.80;99.90;;;;;;5074690;28;20047;-49
2022/07/02 04:38:10;;;;;;;7.72;5.30;;;13.90;99.90;;;;;;5078034;28;20109;-49
2022/07/02 04:40:35;;;;;;;12.38;5.18;;;13.90;99.90;;;;;;5081503;28;20032;-49
2022/07/02 04:43:01;;;;;;;12.57;6.05;;;13.90;99.90;;;;;;5082014;28;20051;-48
2022/07/02 04:45:27;;;;;;;7.78;4.05;;;13.90;99.90;;;;;;5077392;28;20036;-50
2022/07/02 04:47:52;;;;;;;6.00;4.75;;;13.90;99.90;;;;;;5079761;28;20413;-50
2022/07/02 04:50:18;;;;;;;5.15;4.38;;;13.90;99.90;;;;;;5083555;28;20075;-48
2022/07/02 04:52:48;;;;;;;5.03;4.63;;;14.00;99.90;;;;;;5081210;28;20037;-51
2022/07/02 04:55:13;;;;;;;7.47;5.50;;;14.00;99.90;;;;;;5078617;28;20076;-50
2022/07/02 04:57:39;;;;;;;5.88;4.95;;;14.10;99.90;;;;;;5078094;28;20509;-51
2022/07/02 05:00:05;;;;;;;7.03;5.77;;;14.10;99.90;;;;;;5082258;28;20055;-49
2022/07/02 05:02:31;;;;;;;14.68;6.05;;;14.10;99.90;;;;;;5082482;28;20270;-49
2022/07/02 05:04:56;;;;;;;7.77;5.53;;;14.20;99.90;;;;;;5079899;28;20473;-46
2022/07/02 05:07:22;;;;;;;9.97;5.57;;;14.20;99.90;;;;;;5081577;28;20913;-46
2022/07/02 05:09:47;;;;;;;10.38;5.80;;;14.30;99.90;;;;;;5080898;28;20298;-49
2022/07/02 05:12:13;;;;;;;10.93;6.03;;;14.30;99.90;;;;;;5081477;28;20060;-48
2022/07/02 05:14:38;;;;;;;10.20;5.65;;;14.40;99.90;;;;;;5080284;28;20059;-46
2022/07/02 05:17:04;;;;;;;5.60;5.10;;;14.40;99.90;;;;;;5081126;28;20465;-49
2022/07/02 05:19:29;;;;;;;11.32;5.90;;;14.50;99.90;;;;;;5082366;28;20807;-46
2022/07/02 05:21:55;;;;;;;7.13;6.30;;;14.60;99.90;;;;;;5079677;28;20082;-48
2022/07/02 05:24:20;;;;;;;10.52;6.63;;;14.70;99.90;;;;;;5081980;28;20114;-47
2022/07/02 05:26:46;;;;;;;7.55;5.85;;;14.70;99.90;;;;;;5080509;28;20448;-49
2022/07/02 05:29:12;;;;;;;7.60;5.25;;;14.70;99.90;;;;;;5080823;28;20362;-45
2022/07/02 05:31:37;;;;;;;8.95;4.90;;;14.80;99.90;;;;;;5075574;28;20032;-49
2022/07/02 05:34:03;;;;;;;5.65;5.18;;;14.90;99.90;;;;;;5080400;28;20036;-48
2022/07/02 05:36:28;;;;;;;9.27;5.35;;;14.90;99.90;;;;;;5080510;28;20089;-46
2022/07/02 05:38:54;;;;;;;7.82;5.15;;;15.00;99.90;;;;;;5079193;28;20079;-46
2022/07/02 05:41:19;;;;;;;9.45;5.05;;;15.10;99.90;;;;;;5077097;28;20032;-46
2022/07/02 05:43:45;;;;;;;9.68;4.70;;;15.20;99.90;;;;;;5081134;28;20093;-46
2022/07/02 05:46:10;;;;;;;4.25;3.75;;;15.30;99.90;;;;;;5080660;28;20498;-46
2022/07/02 05:48:36;;;;;;;6.03;4.43;;;15.40;99.90;;;;;;5080428;28;20040;-49
2022/07/02 05:51:02;;;;;;;8.52;5.05;;;15.40;99.90;;;;;;5077086;28;20096;-49
2022/07/02 05:53:27;;;;;;;5.65;3.95;;;15.50;99.90;;;;;;5079862;28;20061;-47
2022/07/02 05:55:53;;;;;;;5.18;4.68;;;15.50;99.90;;;;;;5081818;28;20079;-46
2022/07/02 05:58:18;;;;;;;7.03;3.60;;;15.60;99.90;;;;;;5079094;28;20031;-47
2022/07/02 06:00:44;;;;;;;6.70;4.70;;;15.60;99.90;;;;;;5080500;28;20036;-47
2022/07/02 06:03:09;;;;;;;5.88;4.00;;;15.70;99.90;;;;;;5080220;28;20196;-47
2022/07/02 06:08:19;;;;;;;8.93;5.22;;;15.80;99.90;;;;;;5075883;28;20074;-46
2022/07/02 06:10:45;;;;;;;7.57;4.70;;;15.80;99.90;;;;;;5080542;28;20071;-46
2022/07/02 06:13:10;;;;;;;7.38;3.50;;;15.90;99.90;;;;;;5076954;28;20044;-50
2022/07/02 06:15:36;;;;;;;7.13;3.78;;;16.00;99.90;;;;;;5079925;28;20133;-47
2022/07/02 06:18:02;;;;;;;9.38;4.05;;;16.00;99.90;;;;;;5080426;28;20040;-49
2022/07/02 06:20:28;;;;;;;7.10;4.07;;;16.10;99.90;;;;;;5080770;28;20028;-48
2022/07/02 06:22:54;;;;;;;4.75;4.32;;;16.20;99.90;;;;;;5079661;28;20106;-46
2022/07/02 06:25:20;;;;;;;5.70;3.42;;;16.20;99.90;;;;;;5075711;28;20115;-48
2022/07/02 06:27:45;;;;;;;5.70;3.88;;;16.30;99.90;;;;;;5076650;28;20179;-47
2022/07/02 06:30:11;;;;;;;6.00;3.80;;;16.40;99.90;;;;;;5080035;28;20370;-52
2022/07/02 06:32:37;;;;;;;5.43;3.88;;;16.40;99.90;;;;;;5081012;28;20037;-50
2022/07/02 06:35:03;;;;;;;5.72;4.15;;;16.50;99.90;;;;;;5077477;28;20459;-49
2022/07/02 06:37:29;;;;;;;8.13;3.17;;;16.60;99.90;;;;;;5080424;28;20036;-46
2022/07/02 06:39:55;;;;;;;7.88;3.30;;;16.60;99.90;;;;;;5078805;28;20174;-47
2022/07/02 06:42:22;;;;;;;7.97;2.45;;;16.60;99.90;;;;;;5081467;28;20461;-47
2022/07/02 06:44:50;;;;;;;8.88;3.75;;;16.60;99.90;;;;;;5077961;28;20097;-50
2022/07/02 06:47:16;;;;;;;6.18;2.55;;;16.70;99.90;;;;;;5075918;28;20140;-46
2022/07/02 06:49:42;;;;;;;5.03;3.17;;;16.80;99.90;;;;;;5074456;28;20414;-50
2022/07/02 06:52:08;;;;;;;;;;;16.80;99.90;;;;;;5080920;28;20436;-49
2022/07/02 06:54:35;;;;;;;4.43;2.33;;;16.90;99.90;;;;;;5078452;28;19927;-49
2022/07/02 06:57:01;;;;;;;7.82;2.15;;;16.90;99.90;;;;;;5072444;28;20374;-51
2022/07/02 06:59:27;;;;;;;8.55;2.22;;;17.00;99.90;;;;;;5078637;28;20028;-47
2022/07/02 07:01:52;;;;;;;7.00;2.08;;;17.10;99.90;;;;;;5078674;28;20036;-46
2022/07/02 07:04:18;;;;;;;6.70;1.52;;;17.10;99.90;;;;;;5075680;28;20028;-48
2022/07/02 07:06:46;;;;;;;4.32;1.30;;;17.20;99.90;;;;;;5077763;28;20044;-48
2022/07/02 07:09:11;;;;;;;2.95;1.05;;;17.20;99.90;;;;;;5078243;28;20036;-47
2022/07/02 07:11:37;;;;;;;3.60;1.08;;;17.30;99.90;;;;;;5077590;28;20046;-47
2022/07/02 07:14:02;;;;;;;3.38;0.85;;;17.40;99.90;;;;;;5079347;28;20293;-46
2022/07/02 07:16:28;;;;;;;3.88;0.65;;;17.40;99.90;;;;;;5076704;28;20081;-47
2022/07/02 07:19:01;;;;;;;2.10;0.65;;;17.50;99.90;;;;;;5078966;28;20036;-48
2022/07/02 07:21:27;;;;;;;4.57;0.50;;;17.50;99.90;;;;;;5077305;28;20036;-46
2022/07/02 07:23:52;;;;;;;3.15;0.85;;;17.60;99.90;;;;;;5076307;28;20047;-51
2022/07/02 07:26:18;;;;;;;3.35;0.90;;;17.60;99.90;;;;;;5077281;28;20072;-49
2022/07/02 07:28:44;;;;;;;2.92;0.47;;;17.60;99.90;;;;;;5080769;28;20433;-50
2022/07/02 07:31:09;;;;;;;2.90;0.40;;;17.70;99.90;;;;;;5075616;28;20301;-47
2022/07/02 07:33:35;;;;;;;3.17;1.05;;;17.70;99.90;;;;;;5079791;28;20598;-48
2022/07/02 07:36:01;;;;;;;3.47;0.50;;;17.80;99.90;;;;;;5070334;28;20045;-49
2022/07/02 07:38:26;;;;;;;4.20;0.50;;;17.90;99.90;;;;;;5078690;28;20516;-49
2022/07/02 07:40:52;;;;;;;7.10;0.95;;;18.00;99.90;;;;;;5063212;28;20560;-47
2022/07/02 07:43:17;;;;;;;4.30;0.68;;;18.10;99.60;;;;;;5069510;28;20036;-47
2022/07/02 07:45:43;;;;;;;1.85;0.40;;;18.10;99.60;;;;;;5059704;28;20063;-49
2022/07/02 07:48:08;;;;;;;2.63;0.40;;;18.20;99.90;;;;;;5070599;28;20043;-47
2022/07/02 07:50:34;;;;;;;0.93;0.40;;;18.30;99.90;;;;;;5071547;28;20039;-46
2022/07/02 07:52:59;;;;;;;2.58;0.40;;;18.40;99.30;;;;;;5071962;28;20036;-50
2022/07/02 07:55:26;;;;;;;2.80;0.32;;;18.40;99.80;;;;;;5071037;28;20502;-51
2022/07/02 07:57:52;;;;;;;5.30;0.60;;;18.50;99.50;;;;;;5075687;28;20438;-49
2022/07/02 08:00:17;;;;;;;1.73;0.40;;;18.50;98.90;;;;;;5072750;28;20127;-50
2022/07/02 08:02:43;;;;;;;5.38;0.60;;;18.60;98.70;;;;;;5068593;28;20037;-55
2022/07/02 08:05:09;;;;;;;1.95;0.50;;;18.60;98.80;;;;;;5070258;28;20075;-46
2022/07/02 08:07:39;;;;;;;3.20;0.30;;;18.70;99.00;;;;;;5064012;28;20068;-47
2022/07/02 08:10:12;;;;;;;6.00;0.20;;;18.70;97.60;;;;;;5068776;28;20045;-47
2022/07/02 08:12:42;;;;;;;2.42;0.35;;;18.80;98.00;;;;;;5071301;28;20040;-52
2022/07/02 08:15:08;;;;;;;2.80;0.60;;;18.80;98.00;;;;;;5075839;28;20032;-50
2022/07/02 08:17:35;;;;;;;2.47;0.40;;;18.90;97.90;;;;;;5072141;28;20032;-46
2022/07/02 08:20:03;;;;;;;1.42;0.30;;;18.90;97.80;;;;;;5070489;28;20039;-50
2022/07/02 08:22:29;;;;;;;2.13;0.20;;;19.00;98.40;;;;;;5067274;28;20036;-47
2022/07/02 08:24:54;;;;;;;1.55;0.30;;;19.00;98.00;;;;;;5065383;28;20518;-50
2022/07/02 08:27:20;;;;;;;0.80;0.30;;;19.10;97.90;;;;;;5073482;28;20040;-46
2022/07/02 08:29:46;;;;;;;1.88;0.20;;;19.10;98.30;;;;;;5064392;28;20041;-48
2022/07/02 08:32:11;;;;;;;1.15;0.30;;;19.10;97.80;;;;;;5070366;28;20445;-47
2022/07/02 08:34:37;;;;;;;3.97;0.20;;;19.20;97.30;;;;;;5066335;28;20036;-52
2022/07/02 08:37:03;;;;;;;2.42;0.40;;;19.20;96.90;;;;;;5085265;28;20041;-47
2022/07/02 08:39:28;;;;;;;3.70;0.40;;;19.20;97.00;;;;;;5070116;28;20040;-49
2022/07/02 08:41:57;;;;;;;2.13;0.32;;;19.30;97.10;;;;;;5064313;28;20051;-46
2022/07/02 08:44:24;;;;;;;2.28;0.20;;;19.30;97.10;;;;;;5062290;28;20041;-47
2022/07/02 08:46:51;;;;;;;1.88;0.38;;;19.40;97.50;;;;;;5078593;28;20052;-48
2022/07/02 08:49:18;;;;;;;2.03;0.30;;;19.50;98.10;;;;;;5083027;28;20024;-48
2022/07/02 08:52:07;;;;;;;2.00;0.20;;;19.50;97.20;;;;;;5079325;28;20051;-50
2022/07/02 08:54:32;;;;;;;0.82;0.40;;;19.60;96.60;;;;;;5074810;28;20048;-46
2022/07/02 08:57:00;;;;;;;6.93;0.40;;;19.60;96.60;;;;;;5080463;28;20109;-49
2022/07/02 08:59:26;;;;;;;1.75;0.22;;;19.60;96.20;;;;;;5077337;28;20037;-50
2022/07/02 09:01:52;;;;;;;2.15;0.28;;;19.60;96.20;;;;;;5079936;28;20036;-50
2022/07/02 09:04:19;;;;;;;1.73;0.20;;;19.60;96.00;;;;;;5075329;28;20539;-47
2022/07/02 09:06:46;;;;;;;4.90;0.25;;;19.70;95.40;;;;;;5073141;28;20042;-50
2022/07/02 09:09:12;;;;;;;2.67;0.40;;;19.70;95.30;;;;;;5083615;28;20455;-48
2022/07/02 09:11:37;;;;;;;1.92;0.20;;;19.70;96.00;;;;;;5089170;28;20140;-47
2022/07/02 09:14:04;;;;;;;0.88;0.20;;;19.80;97.00;;;;;;5080160;28;20036;-48
2022/07/02 09:16:31;;;;;;;4.65;0.43;;;19.80;96.70;;;;;;5078669;28;20033;-50
2022/07/02 09:18:57;;;;;;;2.55;0.32;;;19.90;96.20;;;;;;5076999;28;20036;-49
2022/07/02 09:21:22;;;;;;;2.03;0.20;;;20.00;95.70;;;;;;5069733;28;20165;-48
2022/07/02 09:23:50;;;;;;;1.15;0.20;;;20.00;96.00;;;;;;5072186;28;20051;-48
2022/07/02 09:26:20;;;;;;;4.85;0.30;;;20.00;95.90;;;;;;5090312;28;20048;-51
2022/07/02 09:29:01;;;;;;;3.75;0.20;;;20.10;96.30;;;;;;5081401;28;20044;-54
2022/07/02 09:31:28;;;;;;;1.83;0.40;;;20.10;94.70;;;;;;5065337;28;20036;-49
2022/07/02 09:33:54;;;;;;;3.28;0.30;;;20.10;95.70;;;;;;5065390;28;20378;-49
2022/07/02 09:36:20;;;;;;;2.70;0.30;;;20.10;95.70;;;;;;5051317;28;20056;-49
2022/07/02 09:38:48;;;;;;;2.55;0.30;;;20.10;95.40;;;;;;5088854;28;20439;-50
2022/07/02 09:41:20;;;;;;;5.00;0.50;;;20.20;95.70;;;;;;5076220;28;20047;-50
2022/07/02 09:43:52;;;;;;;2.58;0.43;;;20.20;96.20;;;;;;5076400;28;20048;-51
2022/07/02 09:46:20;;;;;;;3.30;0.47;;;20.30;96.20;;;;;;5079938;28;20505;-51
2022/07/02 09:48:47;;;;;;;3.45;0.40;;;20.40;96.20;;;;;;5080610;28;20154;-50
2022/07/02 09:51:14;;;;;;;1.17;0.30;;;20.40;95.20;;;;;;5082420;28;20074;-54
2022/07/02 09:53:54;;;;;;;3.00;0.20;;;20.50;96.10;;;;;;5069171;28;20120;-50
2022/07/02 09:56:21;;;;;;;2.78;0.40;;;20.60;96.30;;;;;;5069193;28;20093;-51
2022/07/02 09:58:47;;;;;;;3.55;0.20;;;20.60;96.10;;;;;;5079547;28;20046;-49
2022/07/02 10:01:21;;;;;;;3.25;0.20;;;20.70;95.90;;;;;;5089336;28;20113;-51
2022/07/02 10:03:48;;;;;;;1.38;0.30;;;20.80;94.60;;;;;;5090138;28;20405;-49
2022/07/02 10:06:14;;;;;;;1.83;0.20;;;20.90;94.10;;;;;;5072709;28;20047;-50
2022/07/02 10:08:41;;;;;;;;;;;20.90;93.90;;;;;;5086931;28;20111;-51
2022/07/02 10:11:08;;;;;;;1.33;0.40;;;20.90;94.00;;;;;;5062359;28;19956;-49
2022/07/02 10:13:36;;;;;;;2.75;0.40;;;20.90;93.70;;;;;;5051116;28;20314;-49
2022/07/02 10:16:04;;;;;;;3.00;0.20;;;20.80;94.20;;;;;;5070184;28;20102;-49
2022/07/02 10:18:30;;;;;;;5.13;0.80;;;20.70;93.60;;;;;;5071229;28;20032;-50
2022/07/02 10:20:59;;;;;;;;;;;20.70;94.80;;;;;;5069093;28;20124;-49
2022/07/02 10:23:26;;;;;;;3.30;0.20;;;20.70;95.50;;;;;;5072925;28;20438;-49
2022/07/02 10:25:53;;;;;;;1.40;0.47;;;20.80;94.20;;;;;;5086879;28;20079;-50
2022/07/02 10:28:18;;;;;;;2.88;0.60;;;20.80;94.60;;;;;;5090879;28;20036;-50
2022/07/02 10:30:44;;;;;;;5.03;1.65;;;20.70;93.60;;;;;;5074732;28;20395;-52
2022/07/02 10:33:28;;;;;;;;;;;20.70;94.00;;;;;;5050006;28;20394;-49
2022/07/02 10:35:54;;;;;;;1.33;0.30;;;20.60;93.90;;;;;;5075566;28;19927;-50
2022/07/02 10:38:38;;;;;;;4.50;0.73;;;20.70;95.10;;;;;;5070624;28;20119;-52
2022/07/02 10:41:04;;;;;;;3.67;0.50;;;20.80;95.40;;;;;;5082155;28;20411;-49
2022/07/02 10:43:35;;;;;;;4.22;0.45;;;20.80;94.80;;;;;;5069662;28;20109;-50
2022/07/02 10:46:11;;;;;;;2.17;0.68;;;20.80;94.80;;;;;;5065725;28;20040;-52
2022/07/02 10:48:49;;;;;;;6.72;0.47;;;20.80;95.00;;;;;;5055259;28;20422;-51
2022/07/02 10:51:28;;;;;;;4.25;0.40;;;20.70;94.20;;;;;;5079888;28;20036;-50
2022/07/02 10:54:03;;;;;;;2.90;0.30;;;20.70;94.60;;;;;;5049757;28;20040;-52
2022/07/02 10:56:31;;;;;;;3.08;0.30;;;20.60;94.30;;;;;;5075892;28;20155;-51
2022/07/02 10:58:57;;;;;;;1.45;0.40;;;20.60;95.70;;;;;;5068796;28;20120;-51
2022/07/02 11:01:24;;;;;;;4.00;0.50;;;20.70;95.60;;;;;;5080232;28;20036;-51
2022/07/02 11:03:57;;;;;;;4.60;0.30;;;20.80;95.40;;;;;;5052075;28;20158;-50
2022/07/02 11:06:33;;;;;;;1.75;0.30;;;20.80;94.80;;;;;;5073796;28;20045;-50
2022/07/02 11:09:08;;;;;;;4.60;0.47;;;20.80;94.60;;;;;;5086704;28;20087;-50
2022/07/02 11:11:36;;;;;;;2.72;0.30;;;20.70;95.30;;;;;;5072647;28;20089;-53
2022/07/02 11:14:16;;;;;;;5.97;0.55;;;20.70;94.80;;;;;;5054319;28;20085;-52
2022/07/02 11:16:48;;;;;;;1.52;0.30;;;20.70;94.20;;;;;;5078152;28;20039;-50
2022/07/02 11:19:20;;;;;;;2.45;0.30;;;20.70;94.10;;;;;;5085105;28;20527;-51
2022/07/02 11:21:47;;;;;;;2.97;0.50;;;20.70;95.90;;;;;;5069712;28;20047;-50
2022/07/02 11:24:23;;;;;;;1.55;0.25;;;20.80;95.60;;;;;;5067336;28;20459;-50
2022/07/02 11:26:48;;;;;;;1.87;0.30;;;21.00;95.60;;;;;;5070167;28;20045;-50
2022/07/02 11:29:14;;;;;;;;;;;21.10;95.00;;;;;;5051466;28;20091;-50
2022/07/02 11:31:42;;;;;;;2.03;0.20;;;21.30;95.50;;;;;;5080206;28;20437;-52
2022/07/02 11:34:08;;;;;;;1.15;0.20;;;21.40;94.60;;;;;;5053421;28;20063;-49
2022/07/02 11:36:37;;;;;;;2.67;0.20;;;21.50;94.40;;;;;;5064652;28;20036;-53
2022/07/02 11:39:29;;;;;;;1.42;0.30;;;21.60;93.80;;;;;;5081939;28;20036;-51
2022/07/02 11:41:54;;;;;;;2.75;0.20;;;21.60;94.30;;;;;;5072528;28;20533;-52
2022/07/02 11:44:21;;;;;;;;;;;21.70;93.70;;;;;;5071867;28;20147;-49
2022/07/02 11:46:52;;;;;;;3.15;0.25;;;21.80;93.00;;;;;;5069581;28;19931;-50
2022/07/02 11:49:23;;;;;;;2.25;0.57;;;21.80;93.90;;;;;;5080034;28;20032;-50
2022/07/02 11:51:50;;;;;;;1.75;0.40;;;21.90;93.20;;;;;;5082459;28;20036;-49
2022/07/02 11:54:16;;;;;;;2.40;0.60;;;21.90;93.50;;;;;;5069186;28;20066;-50
2022/07/02 11:56:44;;;;;;;6.68;0.65;;;21.90;92.70;;;;;;5067843;28;20127;-50
2022/07/02 11:59:12;;;;;;;2.10;0.30;;;21.90;93.30;;;;;;5069540;28;20086;-52
2022/07/02 12:01:39;;;;;;;7.00;0.45;;;21.90;92.90;;;;;;5068898;28;20051;-55
2022/07/02 12:04:07;;;;;;;1.30;0.40;;;21.80;92.60;;;;;;5068992;28;20128;-52
2022/07/02 12:06:34;;;;;;;1.10;0.20;;;21.70;92.10;;;;;;5069252;28;20041;-50
2022/07/02 12:09:01;;;;;;;4.30;0.40;;;21.60;92.40;;;;;;5069621;28;20047;-51
2022/07/02 12:11:27;;;;;;;4.03;0.30;;;21.50;92.80;;;;;;5068866;28;20047;-50
2022/07/02 12:13:54;;;;;;;1.67;0.30;;;21.50;93.20;;;;;;5066582;28;20037;-51
2022/07/02 12:16:22;;;;;;;5.78;0.20;;;21.50;92.90;;;;;;5068486;28;20086;-50
2022/07/02 12:19:11;;;;;;;1.60;0.40;;;21.60;93.20;;;;;;5068007;28;20028;-54
2022/07/02 12:21:49;;;;;;;3.28;0.35;;;21.50;92.00;;;;;;5069888;28;20115;-50
2022/07/02 12:24:21;;;;;;;2.88;0.30;;;21.50;92.10;;;;;;5068576;28;20041;-50
2022/07/02 12:26:52;;;;;;;1.33;0.22;;;21.50;93.00;;;;;;5077215;28;20062;-51
2022/07/02 12:32:14;;;;;;;2.20;0.20;;;21.60;92.20;;;;;;5077253;28;20490;-50
2022/07/02 12:34:46;;;;;;;2.38;0.30;;;21.60;92.80;;;;;;5068381;28;20055;-50
2022/07/02 12:37:36;;;;;;;1.45;0.20;;;21.60;92.50;;;;;;5076100;28;20060;-53
2022/07/02 12:40:08;;;;;;;3.97;0.40;;;21.60;92.10;;;;;;5072469;28;20409;-51
2022/07/02 12:42:58;;;;;;;1.00;0.20;;;21.60;92.60;;;;;;5082246;28;20066;-50
2022/07/02 12:45:25;;;;;;;1.50;0.30;;;21.60;91.90;;;;;;5088976;28;20544;-52
2022/07/02 12:47:58;;;;;;;2.08;0.30;;;21.60;92.20;;;;;;5087217;28;20075;-50
2022/07/02 12:50:24;;;;;;;0.82;0.20;;;21.50;92.20;;;;;;5089360;28;20040;-52
2022/07/02 12:53:00;;;;;;;;;;;21.50;91.60;;;;;;5084859;28;20047;-51
2022/07/02 12:55:28;;;;;;;0.40;0.20;;;21.50;91.60;;;;;;5089133;28;19955;-50
2022/07/02 12:57:57;;;;;;;2.95;0.50;;;21.50;92.50;;;;;;5086823;28;20703;-50